sensor_id;sensor_type;location;lat;lon;timestamp;P1;durP1;ratioP1;P2;durP2;ratioP2
35835;SDS011;21955;50.580;7.228;2022-11-13T00:01:39;21.02;;;12.85;;
35835;SDS011;21955;50.580;7.228;2022-11-13T00:04:07;21.63;;;13.02;;
35835;SDS011;21955;50.580;7.228;2022-11-13T00:06:34;19.70;;;12.50;;
35835;SDS011;21955;50.580;7.228;2022-11-13T00:09:03;21.63;;;13.52;;
35835;SDS011;21955;50.580;7.228;2022-11-13T00:11:30;21.70;;;13.32;;
35835;SDS011;21955;50.580;7.228;2022-11-13T00:13:57;21.83;;;13.15;;
35835;SDS011;21955;50.580;7.228;2022-11-13T00:16:24;23.00;;;13.80;;
35835;SDS011;21955;50.580;7.228;2022-11-13T00:18:51;21.63;;;13.75;;
35835;SDS011;21955;50.580;7.228;2022-11-13T00:21:19;21.60;;;13.18;;
35835;SDS011;21955;50.580;7.228;2022-11-13T00:23:46;23.65;;;13.32;;
35835;SDS011;21955;50.580;7.228;2022-11-13T00:26:16;24.35;;;13.65;;
35835;SDS011;21955;50.580;7.228;2022-11-13T00:28:43;22.83;;;13.82;;
35835;SDS011;21955;50.580;7.228;2022-11-13T00:31:11;23.60;;;13.95;;
35835;SDS011;21955;50.580;7.228;2022-11-13T00:33:38;24.33;;;14.57;;
35835;SDS011;21955;50.580;7.228;2022-11-13T00:36:06;26.30;;;14.82;;
35835;SDS011;21955;50.580;7.228;2022-11-13T00:38:34;26.83;;;15.32;;
35835;SDS011;21955;50.580;7.228;2022-11-13T00:41:01;27.63;;;15.27;;
35835;SDS011;21955;50.580;7.228;2022-11-13T00:43:29;25.63;;;14.63;;
35835;SDS011;21955;50.580;7.228;2022-11-13T00:45:56;25.75;;;14.40;;
35835;SDS011;21955;50.580;7.228;2022-11-13T00:48:24;25.77;;;15.10;;
35835;SDS011;21955;50.580;7.228;2022-11-13T00:50:51;29.42;;;15.95;;
35835;SDS011;21955;50.580;7.228;2022-11-13T00:53:18;30.20;;;16.23;;
35835;SDS011;21955;50.580;7.228;2022-11-13T00:55:45;29.97;;;16.43;;
35835;SDS011;21955;50.580;7.228;2022-11-13T00:58:13;32.47;;;17.05;;
35835;SDS011;21955;50.580;7.228;2022-11-13T01:00:42;30.17;;;17.42;;
35835;SDS011;21955;50.580;7.228;2022-11-13T01:03:10;31.77;;;17.38;;
35835;SDS011;21955;50.580;7.228;2022-11-13T01:05:37;31.52;;;17.48;;
35835;SDS011;21955;50.580;7.228;2022-11-13T01:08:05;31.70;;;17.30;;
35835;SDS011;21955;50.580;7.228;2022-11-13T01:10:32;30.90;;;17.42;;
35835;SDS011;21955;50.580;7.228;2022-11-13T01:13:00;29.15;;;16.50;;
35835;SDS011;21955;50.580;7.228;2022-11-13T01:15:27;28.98;;;16.33;;
35835;SDS011;21955;50.580;7.228;2022-11-13T01:17:55;27.35;;;15.95;;
35835;SDS011;21955;50.580;7.228;2022-11-13T01:20:23;33.53;;;17.60;;
35835;SDS011;21955;50.580;7.228;2022-11-13T01:22:50;33.97;;;18.05;;
35835;SDS011;21955;50.580;7.228;2022-11-13T01:25:19;33.88;;;18.52;;
35835;SDS011;21955;50.580;7.228;2022-11-13T01:27:46;33.28;;;18.25;;
35835;SDS011;21955;50.580;7.228;2022-11-13T01:30:13;34.75;;;17.65;;
35835;SDS011;21955;50.580;7.228;2022-11-13T01:32:40;33.47;;;17.70;;
35835;SDS011;21955;50.580;7.228;2022-11-13T01:35:08;35.38;;;18.10;;
35835;SDS011;21955;50.580;7.228;2022-11-13T01:37:35;39.70;;;20.23;;
35835;SDS011;21955;50.580;7.228;2022-11-13T01:40:03;39.70;;;19.08;;
35835;SDS011;21955;50.580;7.228;2022-11-13T01:42:30;41.80;;;20.60;;
35835;SDS011;21955;50.580;7.228;2022-11-13T01:44:59;42.00;;;20.02;;
35835;SDS011;21955;50.580;7.228;2022-11-13T01:47:26;39.72;;;19.98;;
35835;SDS011;21955;50.580;7.228;2022-11-13T01:49:55;36.70;;;19.13;;
35835;SDS011;21955;50.580;7.228;2022-11-13T01:52:25;37.28;;;19.25;;
35835;SDS011;21955;50.580;7.228;2022-11-13T01:54:54;37.03;;;18.83;;
35835;SDS011;21955;50.580;7.228;2022-11-13T01:57:22;39.60;;;19.80;;
35835;SDS011;21955;50.580;7.228;2022-11-13T01:59:50;39.40;;;20.63;;
35835;SDS011;21955;50.580;7.228;2022-11-13T02:02:19;42.28;;;20.55;;
35835;SDS011;21955;50.580;7.228;2022-11-13T02:04:46;36.20;;;19.13;;
35835;SDS011;21955;50.580;7.228;2022-11-13T02:07:13;38.47;;;19.73;;
35835;SDS011;21955;50.580;7.228;2022-11-13T02:09:43;36.50;;;18.83;;
35835;SDS011;21955;50.580;7.228;2022-11-13T02:12:11;36.85;;;18.45;;
35835;SDS011;21955;50.580;7.228;2022-11-13T02:14:38;34.83;;;17.52;;
35835;SDS011;21955;50.580;7.228;2022-11-13T02:17:07;30.63;;;17.30;;
35835;SDS011;21955;50.580;7.228;2022-11-13T02:19:37;37.22;;;18.05;;
35835;SDS011;21955;50.580;7.228;2022-11-13T02:22:06;35.55;;;18.50;;
35835;SDS011;21955;50.580;7.228;2022-11-13T02:24:39;36.70;;;19.00;;
35835;SDS011;21955;50.580;7.228;2022-11-13T02:27:07;37.80;;;18.67;;
35835;SDS011;21955;50.580;7.228;2022-11-13T02:29:36;36.15;;;18.63;;
35835;SDS011;21955;50.580;7.228;2022-11-13T02:32:03;30.47;;;15.83;;
35835;SDS011;21955;50.580;7.228;2022-11-13T02:34:30;32.45;;;16.63;;
35835;SDS011;21955;50.580;7.228;2022-11-13T02:36:57;30.83;;;16.33;;
35835;SDS011;21955;50.580;7.228;2022-11-13T02:39:25;28.00;;;15.48;;
35835;SDS011;21955;50.580;7.228;2022-11-13T02:41:53;25.42;;;14.10;;
35835;SDS011;21955;50.580;7.228;2022-11-13T02:44:20;27.52;;;14.00;;
35835;SDS011;21955;50.580;7.228;2022-11-13T02:46:47;29.07;;;14.80;;
35835;SDS011;21955;50.580;7.228;2022-11-13T02:49:14;29.63;;;14.52;;
35835;SDS011;21955;50.580;7.228;2022-11-13T02:51:41;31.63;;;15.82;;
35835;SDS011;21955;50.580;7.228;2022-11-13T02:54:08;29.23;;;15.50;;
35835;SDS011;21955;50.580;7.228;2022-11-13T02:56:35;29.90;;;15.80;;
35835;SDS011;21955;50.580;7.228;2022-11-13T02:59:04;30.13;;;15.73;;
35835;SDS011;21955;50.580;7.228;2022-11-13T03:01:31;33.38;;;15.50;;
35835;SDS011;21955;50.580;7.228;2022-11-13T03:04:00;35.28;;;15.93;;
35835;SDS011;21955;50.580;7.228;2022-11-13T03:06:27;32.05;;;14.70;;
35835;SDS011;21955;50.580;7.228;2022-11-13T03:08:54;30.77;;;14.50;;
35835;SDS011;21955;50.580;7.228;2022-11-13T03:11:21;35.85;;;14.70;;
35835;SDS011;21955;50.580;7.228;2022-11-13T03:13:48;39.13;;;13.57;;
35835;SDS011;21955;50.580;7.228;2022-11-13T03:16:17;28.95;;;13.73;;
35835;SDS011;21955;50.580;7.228;2022-11-13T03:18:44;31.45;;;13.50;;
35835;SDS011;21955;50.580;7.228;2022-11-13T03:21:12;28.15;;;13.88;;
35835;SDS011;21955;50.580;7.228;2022-11-13T03:23:40;30.52;;;13.82;;
35835;SDS011;21955;50.580;7.228;2022-11-13T03:26:11;28.48;;;13.77;;
35835;SDS011;21955;50.580;7.228;2022-11-13T03:28:38;30.88;;;14.63;;
35835;SDS011;21955;50.580;7.228;2022-11-13T03:31:05;26.52;;;13.52;;
35835;SDS011;21955;50.580;7.228;2022-11-13T03:33:34;24.55;;;12.90;;
35835;SDS011;21955;50.580;7.228;2022-11-13T03:36:01;29.52;;;13.88;;
35835;SDS011;21955;50.580;7.228;2022-11-13T03:38:28;23.77;;;12.85;;
35835;SDS011;21955;50.580;7.228;2022-11-13T03:40:55;23.27;;;12.97;;
35835;SDS011;21955;50.580;7.228;2022-11-13T03:43:23;24.23;;;13.35;;
35835;SDS011;21955;50.580;7.228;2022-11-13T03:45:50;23.55;;;13.45;;
35835;SDS011;21955;50.580;7.228;2022-11-13T03:48:17;25.30;;;14.10;;
35835;SDS011;21955;50.580;7.228;2022-11-13T03:50:47;25.98;;;13.98;;
35835;SDS011;21955;50.580;7.228;2022-11-13T03:53:14;26.60;;;14.25;;
35835;SDS011;21955;50.580;7.228;2022-11-13T03:55:41;25.63;;;14.30;;
35835;SDS011;21955;50.580;7.228;2022-11-13T03:58:08;23.23;;;13.75;;
35835;SDS011;21955;50.580;7.228;2022-11-13T04:00:40;22.73;;;13.05;;
35835;SDS011;21955;50.580;7.228;2022-11-13T04:03:07;23.55;;;13.23;;
35835;SDS011;21955;50.580;7.228;2022-11-13T04:05:34;21.50;;;12.75;;
35835;SDS011;21955;50.580;7.228;2022-11-13T04:08:03;22.13;;;12.35;;
35835;SDS011;21955;50.580;7.228;2022-11-13T04:10:30;21.33;;;12.80;;
35835;SDS011;21955;50.580;7.228;2022-11-13T04:12:57;23.60;;;13.00;;
35835;SDS011;21955;50.580;7.228;2022-11-13T04:15:24;21.15;;;12.45;;
35835;SDS011;21955;50.580;7.228;2022-11-13T04:17:51;18.98;;;11.52;;
35835;SDS011;21955;50.580;7.228;2022-11-13T04:20:18;19.13;;;10.93;;
35835;SDS011;21955;50.580;7.228;2022-11-13T04:22:45;18.67;;;10.13;;
35835;SDS011;21955;50.580;7.228;2022-11-13T04:25:14;18.75;;;10.60;;
35835;SDS011;21955;50.580;7.228;2022-11-13T04:27:41;20.65;;;11.48;;
35835;SDS011;21955;50.580;7.228;2022-11-13T04:30:08;21.75;;;10.80;;
35835;SDS011;21955;50.580;7.228;2022-11-13T04:32:38;22.85;;;11.23;;
35835;SDS011;21955;50.580;7.228;2022-11-13T04:35:06;20.35;;;11.23;;
35835;SDS011;21955;50.580;7.228;2022-11-13T04:37:33;21.13;;;11.30;;
35835;SDS011;21955;50.580;7.228;2022-11-13T04:40:00;22.13;;;11.65;;
35835;SDS011;21955;50.580;7.228;2022-11-13T04:42:28;21.65;;;10.90;;
35835;SDS011;21955;50.580;7.228;2022-11-13T04:45:13;18.80;;;10.75;;
35835;SDS011;21955;50.580;7.228;2022-11-13T04:47:40;22.67;;;10.07;;
35835;SDS011;21955;50.580;7.228;2022-11-13T04:50:08;22.35;;;10.32;;
35835;SDS011;21955;50.580;7.228;2022-11-13T04:52:35;21.23;;;9.77;;
35835;SDS011;21955;50.580;7.228;2022-11-13T04:55:02;32.38;;;10.23;;
35835;SDS011;21955;50.580;7.228;2022-11-13T04:57:31;21.48;;;10.60;;
35835;SDS011;21955;50.580;7.228;2022-11-13T04:59:58;25.98;;;10.80;;
35835;SDS011;21955;50.580;7.228;2022-11-13T05:02:25;21.52;;;10.25;;
35835;SDS011;21955;50.580;7.228;2022-11-13T05:04:52;28.63;;;10.57;;
35835;SDS011;21955;50.580;7.228;2022-11-13T05:07:19;22.48;;;10.52;;
35835;SDS011;21955;50.580;7.228;2022-11-13T05:09:46;32.95;;;10.60;;
35835;SDS011;21955;50.580;7.228;2022-11-13T05:12:14;39.03;;;10.10;;
35835;SDS011;21955;50.580;7.228;2022-11-13T05:14:42;21.15;;;10.15;;
35835;SDS011;21955;50.580;7.228;2022-11-13T05:17:10;21.88;;;10.73;;
35835;SDS011;21955;50.580;7.228;2022-11-13T05:19:37;30.30;;;9.98;;
35835;SDS011;21955;50.580;7.228;2022-11-13T05:22:05;24.88;;;9.95;;
35835;SDS011;21955;50.580;7.228;2022-11-13T05:24:32;23.40;;;10.63;;
35835;SDS011;21955;50.580;7.228;2022-11-13T05:26:59;28.85;;;11.95;;
35835;SDS011;21955;50.580;7.228;2022-11-13T05:29:26;26.25;;;11.57;;
35835;SDS011;21955;50.580;7.228;2022-11-13T05:31:55;30.38;;;12.52;;
35835;SDS011;21955;50.580;7.228;2022-11-13T05:34:22;28.07;;;12.10;;
35835;SDS011;21955;50.580;7.228;2022-11-13T05:36:49;32.95;;;12.10;;
35835;SDS011;21955;50.580;7.228;2022-11-13T05:39:16;28.83;;;11.30;;
35835;SDS011;21955;50.580;7.228;2022-11-13T05:41:43;29.20;;;11.13;;
35835;SDS011;21955;50.580;7.228;2022-11-13T05:44:10;26.48;;;10.68;;
35835;SDS011;21955;50.580;7.228;2022-11-13T05:46:37;22.70;;;11.00;;
35835;SDS011;21955;50.580;7.228;2022-11-13T05:49:06;19.40;;;10.55;;
35835;SDS011;21955;50.580;7.228;2022-11-13T05:51:33;22.83;;;10.38;;
35835;SDS011;21955;50.580;7.228;2022-11-13T05:54:00;20.13;;;11.00;;
35835;SDS011;21955;50.580;7.228;2022-11-13T05:56:28;20.20;;;10.73;;
35835;SDS011;21955;50.580;7.228;2022-11-13T05:58:55;23.40;;;11.13;;
35835;SDS011;21955;50.580;7.228;2022-11-13T06:01:24;23.95;;;12.45;;
35835;SDS011;21955;50.580;7.228;2022-11-13T06:03:52;24.07;;;12.73;;
35835;SDS011;21955;50.580;7.228;2022-11-13T06:06:22;25.15;;;12.38;;
35835;SDS011;21955;50.580;7.228;2022-11-13T06:08:49;22.63;;;11.80;;
35835;SDS011;21955;50.580;7.228;2022-11-13T06:11:18;24.30;;;12.13;;
35835;SDS011;21955;50.580;7.228;2022-11-13T06:13:45;23.65;;;11.77;;
35835;SDS011;21955;50.580;7.228;2022-11-13T06:16:13;23.83;;;11.70;;
35835;SDS011;21955;50.580;7.228;2022-11-13T06:18:41;23.30;;;10.43;;
35835;SDS011;21955;50.580;7.228;2022-11-13T06:21:09;25.40;;;10.80;;
35835;SDS011;21955;50.580;7.228;2022-11-13T06:23:38;21.45;;;11.20;;
35835;SDS011;21955;50.580;7.228;2022-11-13T06:26:06;25.43;;;12.40;;
35835;SDS011;21955;50.580;7.228;2022-11-13T06:28:34;22.80;;;11.60;;
35835;SDS011;21955;50.580;7.228;2022-11-13T06:31:02;23.02;;;11.93;;
35835;SDS011;21955;50.580;7.228;2022-11-13T06:33:29;27.33;;;12.93;;
35835;SDS011;21955;50.580;7.228;2022-11-13T06:35:56;30.13;;;14.35;;
35835;SDS011;21955;50.580;7.228;2022-11-13T06:38:23;25.85;;;12.93;;
35835;SDS011;21955;50.580;7.228;2022-11-13T06:40:52;27.02;;;13.18;;
35835;SDS011;21955;50.580;7.228;2022-11-13T06:43:19;25.65;;;13.05;;
35835;SDS011;21955;50.580;7.228;2022-11-13T06:45:46;24.90;;;12.30;;
35835;SDS011;21955;50.580;7.228;2022-11-13T06:48:13;23.13;;;11.95;;
35835;SDS011;21955;50.580;7.228;2022-11-13T06:50:40;26.85;;;13.23;;
35835;SDS011;21955;50.580;7.228;2022-11-13T06:53:08;28.20;;;13.93;;
35835;SDS011;21955;50.580;7.228;2022-11-13T06:55:35;28.88;;;13.90;;
35835;SDS011;21955;50.580;7.228;2022-11-13T06:58:03;25.83;;;13.25;;
35835;SDS011;21955;50.580;7.228;2022-11-13T07:00:30;24.58;;;12.90;;
35835;SDS011;21955;50.580;7.228;2022-11-13T07:02:58;21.85;;;11.98;;
35835;SDS011;21955;50.580;7.228;2022-11-13T07:05:26;22.35;;;13.07;;
35835;SDS011;21955;50.580;7.228;2022-11-13T07:07:53;22.55;;;12.05;;
35835;SDS011;21955;50.580;7.228;2022-11-13T07:10:20;20.65;;;11.18;;
35835;SDS011;21955;50.580;7.228;2022-11-13T07:12:47;19.77;;;11.20;;
35835;SDS011;21955;50.580;7.228;2022-11-13T07:15:15;17.88;;;10.75;;
35835;SDS011;21955;50.580;7.228;2022-11-13T07:17:42;18.42;;;11.00;;
35835;SDS011;21955;50.580;7.228;2022-11-13T07:20:10;17.50;;;10.30;;
35835;SDS011;21955;50.580;7.228;2022-11-13T07:22:37;16.35;;;9.57;;
35835;SDS011;21955;50.580;7.228;2022-11-13T07:25:04;15.67;;;9.80;;
35835;SDS011;21955;50.580;7.228;2022-11-13T07:27:31;16.80;;;9.80;;
35835;SDS011;21955;50.580;7.228;2022-11-13T07:29:58;15.63;;;9.27;;
35835;SDS011;21955;50.580;7.228;2022-11-13T07:32:27;15.13;;;8.32;;
35835;SDS011;21955;50.580;7.228;2022-11-13T07:34:54;15.80;;;8.60;;
35835;SDS011;21955;50.580;7.228;2022-11-13T07:37:21;13.33;;;8.07;;
35835;SDS011;21955;50.580;7.228;2022-11-13T07:39:48;12.82;;;7.90;;
35835;SDS011;21955;50.580;7.228;2022-11-13T07:42:15;13.73;;;8.47;;
35835;SDS011;21955;50.580;7.228;2022-11-13T07:44:42;13.55;;;8.38;;
35835;SDS011;21955;50.580;7.228;2022-11-13T07:47:10;14.70;;;8.60;;
35835;SDS011;21955;50.580;7.228;2022-11-13T07:49:39;12.70;;;8.13;;
35835;SDS011;21955;50.580;7.228;2022-11-13T07:52:06;12.25;;;7.75;;
35835;SDS011;21955;50.580;7.228;2022-11-13T07:54:33;13.45;;;8.20;;
35835;SDS011;21955;50.580;7.228;2022-11-13T07:57:00;14.63;;;8.45;;
35835;SDS011;21955;50.580;7.228;2022-11-13T07:59:27;12.70;;;7.72;;
35835;SDS011;21955;50.580;7.228;2022-11-13T08:01:54;13.45;;;8.60;;
35835;SDS011;21955;50.580;7.228;2022-11-13T08:04:21;12.93;;;8.25;;
35835;SDS011;21955;50.580;7.228;2022-11-13T08:06:50;13.52;;;8.02;;
35835;SDS011;21955;50.580;7.228;2022-11-13T08:09:17;15.50;;;8.18;;
35835;SDS011;21955;50.580;7.228;2022-11-13T08:11:44;12.52;;;7.70;;
35835;SDS011;21955;50.580;7.228;2022-11-13T08:14:11;12.43;;;7.60;;
35835;SDS011;21955;50.580;7.228;2022-11-13T08:16:38;11.88;;;7.43;;
35835;SDS011;21955;50.580;7.228;2022-11-13T08:19:05;11.32;;;7.22;;
35835;SDS011;21955;50.580;7.228;2022-11-13T08:21:33;11.02;;;6.57;;
35835;SDS011;21955;50.580;7.228;2022-11-13T08:24:02;13.17;;;7.07;;
35835;SDS011;21955;50.580;7.228;2022-11-13T08:26:29;10.88;;;6.00;;
35835;SDS011;21955;50.580;7.228;2022-11-13T08:28:56;11.80;;;6.60;;
35835;SDS011;21955;50.580;7.228;2022-11-13T08:31:23;11.82;;;7.30;;
35835;SDS011;21955;50.580;7.228;2022-11-13T08:33:50;9.90;;;6.30;;
35835;SDS011;21955;50.580;7.228;2022-11-13T08:36:17;12.00;;;6.82;;
35835;SDS011;21955;50.580;7.228;2022-11-13T08:38:46;10.40;;;6.50;;
35835;SDS011;21955;50.580;7.228;2022-11-13T08:41:15;9.27;;;6.20;;
35835;SDS011;21955;50.580;7.228;2022-11-13T08:43:42;8.23;;;5.68;;
35835;SDS011;21955;50.580;7.228;2022-11-13T08:46:09;7.15;;;4.88;;
35835;SDS011;21955;50.580;7.228;2022-11-13T08:48:36;6.72;;;4.53;;
35835;SDS011;21955;50.580;7.228;2022-11-13T08:51:03;7.43;;;4.82;;
35835;SDS011;21955;50.580;7.228;2022-11-13T08:53:30;6.60;;;4.65;;
35835;SDS011;21955;50.580;7.228;2022-11-13T08:55:58;7.60;;;4.85;;
35835;SDS011;21955;50.580;7.228;2022-11-13T08:58:27;7.25;;;4.50;;
35835;SDS011;21955;50.580;7.228;2022-11-13T09:00:57;7.60;;;4.90;;
35835;SDS011;21955;50.580;7.228;2022-11-13T09:03:25;5.93;;;4.30;;
35835;SDS011;21955;50.580;7.228;2022-11-13T09:05:52;6.07;;;4.30;;
35835;SDS011;21955;50.580;7.228;2022-11-13T09:08:19;5.53;;;3.83;;
35835;SDS011;21955;50.580;7.228;2022-11-13T09:10:46;5.65;;;3.90;;
35835;SDS011;21955;50.580;7.228;2022-11-13T09:13:13;6.00;;;3.92;;
35835;SDS011;21955;50.580;7.228;2022-11-13T09:15:41;5.50;;;4.10;;
35835;SDS011;21955;50.580;7.228;2022-11-13T09:18:09;6.20;;;3.97;;
35835;SDS011;21955;50.580;7.228;2022-11-13T09:20:36;6.20;;;4.10;;
35835;SDS011;21955;50.580;7.228;2022-11-13T09:23:04;5.82;;;3.90;;
35835;SDS011;21955;50.580;7.228;2022-11-13T09:25:33;6.15;;;3.85;;
35835;SDS011;21955;50.580;7.228;2022-11-13T09:28:00;6.88;;;3.88;;
35835;SDS011;21955;50.580;7.228;2022-11-13T09:30:28;6.78;;;3.80;;
35835;SDS011;21955;50.580;7.228;2022-11-13T09:32:57;5.65;;;3.65;;
35835;SDS011;21955;50.580;7.228;2022-11-13T09:35:25;6.05;;;3.60;;
35835;SDS011;21955;50.580;7.228;2022-11-13T09:37:59;5.03;;;3.60;;
35835;SDS011;21955;50.580;7.228;2022-11-13T09:40:28;5.82;;;3.78;;
35835;SDS011;21955;50.580;7.228;2022-11-13T09:42:58;5.47;;;3.73;;
35835;SDS011;21955;50.580;7.228;2022-11-13T09:45:25;5.50;;;3.70;;
35835;SDS011;21955;50.580;7.228;2022-11-13T09:47:53;5.35;;;3.60;;
35835;SDS011;21955;50.580;7.228;2022-11-13T09:50:23;5.85;;;3.97;;
35835;SDS011;21955;50.580;7.228;2022-11-13T09:52:50;5.45;;;3.90;;
35835;SDS011;21955;50.580;7.228;2022-11-13T09:55:20;5.30;;;3.70;;
35835;SDS011;21955;50.580;7.228;2022-11-13T09:57:49;5.35;;;3.55;;
35835;SDS011;21955;50.580;7.228;2022-11-13T10:00:17;4.68;;;3.33;;
35835;SDS011;21955;50.580;7.228;2022-11-13T10:02:49;5.13;;;3.57;;
35835;SDS011;21955;50.580;7.228;2022-11-13T10:05:22;6.28;;;3.92;;
35835;SDS011;21955;50.580;7.228;2022-11-13T10:07:54;10.45;;;5.30;;
35835;SDS011;21955;50.580;7.228;2022-11-13T10:10:28;9.52;;;4.97;;
35835;SDS011;21955;50.580;7.228;2022-11-13T10:12:57;11.05;;;5.38;;
35835;SDS011;21955;50.580;7.228;2022-11-13T10:15:25;11.70;;;5.00;;
35835;SDS011;21955;50.580;7.228;2022-11-13T10:17:54;7.47;;;4.27;;
35835;SDS011;21955;50.580;7.228;2022-11-13T10:20:24;6.47;;;4.22;;
35835;SDS011;21955;50.580;7.228;2022-11-13T10:22:56;6.00;;;4.00;;
35835;SDS011;21955;50.580;7.228;2022-11-13T10:25:25;5.97;;;3.63;;
35835;SDS011;21955;50.580;7.228;2022-11-13T10:27:55;5.93;;;3.92;;
35835;SDS011;21955;50.580;7.228;2022-11-13T10:30:22;5.63;;;3.45;;
35835;SDS011;21955;50.580;7.228;2022-11-13T10:32:49;7.10;;;4.20;;
35835;SDS011;21955;50.580;7.228;2022-11-13T10:35:39;6.15;;;3.95;;
35835;SDS011;21955;50.580;7.228;2022-11-13T10:38:10;4.68;;;3.55;;
35835;SDS011;21955;50.580;7.228;2022-11-13T10:40:41;4.90;;;3.60;;
35835;SDS011;21955;50.580;7.228;2022-11-13T10:43:12;5.47;;;3.63;;
35835;SDS011;21955;50.580;7.228;2022-11-13T10:45:40;4.85;;;3.28;;
35835;SDS011;21955;50.580;7.228;2022-11-13T10:48:17;4.32;;;3.33;;
35835;SDS011;21955;50.580;7.228;2022-11-13T10:50:53;4.38;;;3.20;;
35835;SDS011;21955;50.580;7.228;2022-11-13T10:53:20;4.60;;;2.95;;
35835;SDS011;21955;50.580;7.228;2022-11-13T10:55:49;4.47;;;3.07;;
35835;SDS011;21955;50.580;7.228;2022-11-13T10:58:18;4.60;;;3.17;;
35835;SDS011;21955;50.580;7.228;2022-11-13T11:00:45;4.38;;;3.17;;
35835;SDS011;21955;50.580;7.228;2022-11-13T11:03:14;4.00;;;2.90;;
35835;SDS011;21955;50.580;7.228;2022-11-13T11:05:50;3.95;;;3.03;;
35835;SDS011;21955;50.580;7.228;2022-11-13T11:08:19;4.72;;;3.13;;
35835;SDS011;21955;50.580;7.228;2022-11-13T11:10:52;4.18;;;3.30;;
35835;SDS011;21955;50.580;7.228;2022-11-13T11:13:38;4.30;;;3.10;;
35835;SDS011;21955;50.580;7.228;2022-11-13T11:16:05;3.67;;;2.80;;
35835;SDS011;21955;50.580;7.228;2022-11-13T11:18:35;4.35;;;2.90;;
35835;SDS011;21955;50.580;7.228;2022-11-13T11:21:05;4.65;;;3.20;;
35835;SDS011;21955;50.580;7.228;2022-11-13T11:23:36;4.03;;;2.80;;
35835;SDS011;21955;50.580;7.228;2022-11-13T11:26:06;4.40;;;3.00;;
35835;SDS011;21955;50.580;7.228;2022-11-13T11:28:36;3.92;;;3.00;;
35835;SDS011;21955;50.580;7.228;2022-11-13T11:31:08;4.10;;;2.78;;
35835;SDS011;21955;50.580;7.228;2022-11-13T11:33:47;4.10;;;3.00;;
35835;SDS011;21955;50.580;7.228;2022-11-13T11:36:16;4.55;;;3.10;;
35835;SDS011;21955;50.580;7.228;2022-11-13T11:38:49;4.85;;;3.13;;
35835;SDS011;21955;50.580;7.228;2022-11-13T11:41:19;5.25;;;3.47;;
35835;SDS011;21955;50.580;7.228;2022-11-13T11:43:50;4.72;;;3.33;;
35835;SDS011;21955;50.580;7.228;2022-11-13T11:46:25;4.47;;;3.05;;
35835;SDS011;21955;50.580;7.228;2022-11-13T11:48:54;5.18;;;3.20;;
35835;SDS011;21955;50.580;7.228;2022-11-13T11:51:23;3.97;;;3.08;;
35835;SDS011;21955;50.580;7.228;2022-11-13T11:53:56;6.30;;;3.50;;
35835;SDS011;21955;50.580;7.228;2022-11-13T11:56:25;4.60;;;3.13;;
35835;SDS011;21955;50.580;7.228;2022-11-13T11:59:03;3.97;;;2.90;;
35835;SDS011;21955;50.580;7.228;2022-11-13T12:01:38;5.35;;;2.88;;
35835;SDS011;21955;50.580;7.228;2022-11-13T12:04:12;3.95;;;2.80;;
35835;SDS011;21955;50.580;7.228;2022-11-13T12:06:44;5.07;;;3.42;;
35835;SDS011;21955;50.580;7.228;2022-11-13T12:09:16;3.77;;;2.70;;
35835;SDS011;21955;50.580;7.228;2022-11-13T12:11:47;3.85;;;2.55;;
35835;SDS011;21955;50.580;7.228;2022-11-13T12:14:19;2.90;;;2.22;;
35835;SDS011;21955;50.580;7.228;2022-11-13T12:16:50;3.08;;;2.33;;
35835;SDS011;21955;50.580;7.228;2022-11-13T12:19:26;3.07;;;2.23;;
35835;SDS011;21955;50.580;7.228;2022-11-13T12:21:57;3.05;;;2.30;;
35835;SDS011;21955;50.580;7.228;2022-11-13T12:27:17;5.03;;;2.60;;
35835;SDS011;21955;50.580;7.228;2022-11-13T12:29:50;3.80;;;2.40;;
35835;SDS011;21955;50.580;7.228;2022-11-13T12:32:23;5.68;;;3.20;;
35835;SDS011;21955;50.580;7.228;2022-11-13T12:34:53;5.28;;;3.50;;
35835;SDS011;21955;50.580;7.228;2022-11-13T12:37:23;4.38;;;3.22;;
35835;SDS011;21955;50.580;7.228;2022-11-13T12:39:54;4.95;;;3.17;;
35835;SDS011;21955;50.580;7.228;2022-11-13T12:42:28;4.30;;;2.95;;
35835;SDS011;21955;50.580;7.228;2022-11-13T12:45:03;4.25;;;2.70;;
35835;SDS011;21955;50.580;7.228;2022-11-13T12:47:32;6.40;;;2.77;;
35835;SDS011;21955;50.580;7.228;2022-11-13T12:50:00;5.45;;;2.70;;
35835;SDS011;21955;50.580;7.228;2022-11-13T12:52:27;4.32;;;2.60;;
35835;SDS011;21955;50.580;7.228;2022-11-13T12:55:05;4.37;;;2.60;;
35835;SDS011;21955;50.580;7.228;2022-11-13T12:57:34;4.00;;;2.40;;
35835;SDS011;21955;50.580;7.228;2022-11-13T13:00:20;4.25;;;2.67;;
35835;SDS011;21955;50.580;7.228;2022-11-13T13:02:51;5.43;;;2.97;;
35835;SDS011;21955;50.580;7.228;2022-11-13T13:05:27;6.97;;;3.35;;
35835;SDS011;21955;50.580;7.228;2022-11-13T13:10:49;7.15;;;3.42;;
35835;SDS011;21955;50.580;7.228;2022-11-13T13:13:22;7.10;;;3.60;;
35835;SDS011;21955;50.580;7.228;2022-11-13T13:15:52;7.32;;;3.25;;
35835;SDS011;21955;50.580;7.228;2022-11-13T13:18:26;7.20;;;2.87;;
35835;SDS011;21955;50.580;7.228;2022-11-13T13:20:57;5.05;;;2.90;;
35835;SDS011;21955;50.580;7.228;2022-11-13T13:23:25;5.18;;;3.10;;
35835;SDS011;21955;50.580;7.228;2022-11-13T13:26:00;4.65;;;2.80;;
35835;SDS011;21955;50.580;7.228;2022-11-13T13:28:30;4.97;;;2.80;;
35835;SDS011;21955;50.580;7.228;2022-11-13T13:30:59;5.63;;;3.13;;
35835;SDS011;21955;50.580;7.228;2022-11-13T13:33:31;8.15;;;3.10;;
35835;SDS011;21955;50.580;7.228;2022-11-13T13:36:06;6.10;;;2.95;;
35835;SDS011;21955;50.580;7.228;2022-11-13T13:38:37;6.50;;;3.10;;
35835;SDS011;21955;50.580;7.228;2022-11-13T13:41:13;6.18;;;3.00;;
35835;SDS011;21955;50.580;7.228;2022-11-13T13:43:48;4.82;;;2.83;;
35835;SDS011;21955;50.580;7.228;2022-11-13T13:46:20;7.60;;;3.55;;
35835;SDS011;21955;50.580;7.228;2022-11-13T13:48:48;9.05;;;3.70;;
35835;SDS011;21955;50.580;7.228;2022-11-13T13:51:20;11.02;;;4.03;;
35835;SDS011;21955;50.580;7.228;2022-11-13T13:53:48;13.85;;;4.50;;
35835;SDS011;21955;50.580;7.228;2022-11-13T13:56:15;12.90;;;4.07;;
35835;SDS011;21955;50.580;7.228;2022-11-13T13:58:44;10.70;;;3.60;;
35835;SDS011;21955;50.580;7.228;2022-11-13T14:01:14;9.80;;;3.60;;
35835;SDS011;21955;50.580;7.228;2022-11-13T14:03:41;9.65;;;3.85;;
35835;SDS011;21955;50.580;7.228;2022-11-13T14:06:10;9.10;;;4.00;;
35835;SDS011;21955;50.580;7.228;2022-11-13T14:08:43;6.95;;;3.80;;
35835;SDS011;21955;50.580;7.228;2022-11-13T14:11:17;7.97;;;3.80;;
35835;SDS011;21955;50.580;7.228;2022-11-13T14:13:44;7.63;;;3.50;;
35835;SDS011;21955;50.580;7.228;2022-11-13T14:16:13;7.28;;;3.50;;
35835;SDS011;21955;50.580;7.228;2022-11-13T14:18:40;7.53;;;3.63;;
35835;SDS011;21955;50.580;7.228;2022-11-13T14:21:10;6.78;;;3.70;;
35835;SDS011;21955;50.580;7.228;2022-11-13T14:23:40;7.15;;;3.58;;
35835;SDS011;21955;50.580;7.228;2022-11-13T14:26:08;6.57;;;3.50;;
35835;SDS011;21955;50.580;7.228;2022-11-13T14:28:41;7.20;;;3.70;;
35835;SDS011;21955;50.580;7.228;2022-11-13T14:31:10;7.60;;;3.57;;
35835;SDS011;21955;50.580;7.228;2022-11-13T14:33:40;4.97;;;3.10;;
35835;SDS011;21955;50.580;7.228;2022-11-13T14:36:08;7.38;;;3.50;;
35835;SDS011;21955;50.580;7.228;2022-11-13T14:38:40;7.32;;;3.65;;
35835;SDS011;21955;50.580;7.228;2022-11-13T14:41:13;7.18;;;3.47;;
35835;SDS011;21955;50.580;7.228;2022-11-13T14:43:46;5.97;;;3.30;;
35835;SDS011;21955;50.580;7.228;2022-11-13T14:46:23;7.03;;;2.97;;
35835;SDS011;21955;50.580;7.228;2022-11-13T14:48:53;5.68;;;2.95;;